sensor_id;sensor_type;location;lat;lon;timestamp;P1;durP1;ratioP1;P2;durP2;ratioP2
62050;SDS011;48008;51.204;6.766;2023-01-19T00:01:29;34.80;;;14.52;;
62050;SDS011;48008;51.204;6.766;2023-01-19T00:03:55;31.05;;;13.75;;
62050;SDS011;48008;51.204;6.766;2023-01-19T00:06:22;33.65;;;14.68;;
62050;SDS011;48008;51.204;6.766;2023-01-19T00:08:49;33.72;;;14.98;;
62050;SDS011;48008;51.204;6.766;2023-01-19T00:11:16;34.78;;;15.77;;
62050;SDS011;48008;51.204;6.766;2023-01-19T00:13:43;32.28;;;14.13;;
62050;SDS011;48008;51.204;6.766;2023-01-19T00:18:44;33.13;;;13.65;;
62050;SDS011;48008;51.204;6.766;2023-01-19T00:21:11;33.72;;;15.43;;
62050;SDS011;48008;51.204;6.766;2023-01-19T00:23:40;37.22;;;15.45;;
62050;SDS011;48008;51.204;6.766;2023-01-19T00:26:07;39.22;;;15.05;;
62050;SDS011;48008;51.204;6.766;2023-01-19T00:28:35;36.60;;;14.25;;
62050;SDS011;48008;51.204;6.766;2023-01-19T00:31:02;34.47;;;14.20;;
62050;SDS011;48008;51.204;6.766;2023-01-19T00:33:28;39.75;;;15.85;;
62050;SDS011;48008;51.204;6.766;2023-01-19T00:35:55;33.25;;;15.32;;
62050;SDS011;48008;51.204;6.766;2023-01-19T00:38:22;34.45;;;14.98;;
62050;SDS011;48008;51.204;6.766;2023-01-19T00:40:49;38.50;;;15.25;;
62050;SDS011;48008;51.204;6.766;2023-01-19T00:43:15;31.98;;;11.55;;
62050;SDS011;48008;51.204;6.766;2023-01-19T00:45:44;41.47;;;15.35;;
62050;SDS011;48008;51.204;6.766;2023-01-19T00:48:11;31.92;;;15.38;;
62050;SDS011;48008;51.204;6.766;2023-01-19T00:50:37;28.30;;;13.60;;
62050;SDS011;48008;51.204;6.766;2023-01-19T00:53:04;36.78;;;15.60;;
62050;SDS011;48008;51.204;6.766;2023-01-19T00:55:30;31.98;;;15.10;;
62050;SDS011;48008;51.204;6.766;2023-01-19T00:57:58;40.78;;;16.33;;
62050;SDS011;48008;51.204;6.766;2023-01-19T01:00:25;33.20;;;13.95;;
62050;SDS011;48008;51.204;6.766;2023-01-19T01:02:52;35.15;;;14.60;;
62050;SDS011;48008;51.204;6.766;2023-01-19T01:05:20;36.10;;;14.70;;
62050;SDS011;48008;51.204;6.766;2023-01-19T01:07:47;35.92;;;15.45;;
62050;SDS011;48008;51.204;6.766;2023-01-19T01:10:16;33.30;;;15.02;;
62050;SDS011;48008;51.204;6.766;2023-01-19T01:12:47;35.75;;;14.98;;
62050;SDS011;48008;51.204;6.766;2023-01-19T01:15:14;38.33;;;15.80;;
62050;SDS011;48008;51.204;6.766;2023-01-19T01:17:42;39.10;;;14.90;;
62050;SDS011;48008;51.204;6.766;2023-01-19T01:20:14;32.28;;;14.93;;
62050;SDS011;48008;51.204;6.766;2023-01-19T01:22:45;36.63;;;15.05;;
62050;SDS011;48008;51.204;6.766;2023-01-19T01:25:14;40.22;;;15.98;;
62050;SDS011;48008;51.204;6.766;2023-01-19T01:27:42;36.35;;;15.50;;
62050;SDS011;48008;51.204;6.766;2023-01-19T01:30:10;40.17;;;15.88;;
62050;SDS011;48008;51.204;6.766;2023-01-19T01:32:39;39.10;;;16.05;;
62050;SDS011;48008;51.204;6.766;2023-01-19T01:35:06;36.85;;;16.42;;
62050;SDS011;48008;51.204;6.766;2023-01-19T01:37:34;39.17;;;16.42;;
62050;SDS011;48008;51.204;6.766;2023-01-19T01:40:02;31.98;;;14.90;;
62050;SDS011;48008;51.204;6.766;2023-01-19T01:42:31;41.78;;;15.70;;
62050;SDS011;48008;51.204;6.766;2023-01-19T01:44:59;25.65;;;11.45;;
62050;SDS011;48008;51.204;6.766;2023-01-19T01:47:40;28.02;;;10.88;;
62050;SDS011;48008;51.204;6.766;2023-01-19T01:50:12;36.55;;;13.80;;
62050;SDS011;48008;51.204;6.766;2023-01-19T01:55:11;28.10;;;11.57;;
62050;SDS011;48008;51.204;6.766;2023-01-19T01:57:40;33.97;;;14.23;;
62050;SDS011;48008;51.204;6.766;2023-01-19T02:00:11;36.08;;;14.40;;
62050;SDS011;48008;51.204;6.766;2023-01-19T02:02:39;37.00;;;15.65;;
62050;SDS011;48008;51.204;6.766;2023-01-19T02:05:23;33.33;;;14.85;;
62050;SDS011;48008;51.204;6.766;2023-01-19T02:07:55;31.02;;;12.70;;
62050;SDS011;48008;51.204;6.766;2023-01-19T02:11:02;35.25;;;14.80;;
62050;SDS011;48008;51.204;6.766;2023-01-19T02:13:50;36.35;;;14.55;;
62050;SDS011;48008;51.204;6.766;2023-01-19T02:16:16;36.55;;;14.98;;
62050;SDS011;48008;51.204;6.766;2023-01-19T02:18:43;36.42;;;15.07;;
62050;SDS011;48008;51.204;6.766;2023-01-19T02:21:11;39.92;;;15.27;;
62050;SDS011;48008;51.204;6.766;2023-01-19T02:24:06;37.33;;;15.38;;
62050;SDS011;48008;51.204;6.766;2023-01-19T02:26:35;35.65;;;14.77;;
62050;SDS011;48008;51.204;6.766;2023-01-19T02:29:06;34.13;;;15.50;;
62050;SDS011;48008;51.204;6.766;2023-01-19T02:31:35;34.47;;;14.53;;
62050;SDS011;48008;51.204;6.766;2023-01-19T02:34:05;38.50;;;14.20;;
62050;SDS011;48008;51.204;6.766;2023-01-19T02:36:37;34.72;;;15.30;;
62050;SDS011;48008;51.204;6.766;2023-01-19T02:39:07;35.63;;;12.95;;
62050;SDS011;48008;51.204;6.766;2023-01-19T02:41:38;32.28;;;13.77;;
62050;SDS011;48008;51.204;6.766;2023-01-19T02:44:09;29.70;;;13.95;;
62050;SDS011;48008;51.204;6.766;2023-01-19T02:46:38;30.35;;;12.77;;
62050;SDS011;48008;51.204;6.766;2023-01-19T02:49:06;29.65;;;14.23;;
62050;SDS011;48008;51.204;6.766;2023-01-19T02:51:33;35.42;;;13.07;;
62050;SDS011;48008;51.204;6.766;2023-01-19T02:56:56;26.30;;;12.35;;
62050;SDS011;48008;51.204;6.766;2023-01-19T02:59:56;32.58;;;12.82;;
62050;SDS011;48008;51.204;6.766;2023-01-19T03:03:10;31.15;;;11.90;;
62050;SDS011;48008;51.204;6.766;2023-01-19T03:06:16;28.27;;;11.68;;
62050;SDS011;48008;51.204;6.766;2023-01-19T03:08:35;31.13;;;12.27;;
62050;SDS011;48008;51.204;6.766;2023-01-19T03:11:26;29.10;;;11.88;;
62050;SDS011;48008;51.204;6.766;2023-01-19T03:14:00;26.30;;;10.52;;
62050;SDS011;48008;51.204;6.766;2023-01-19T03:19:13;27.38;;;11.63;;
62050;SDS011;48008;51.204;6.766;2023-01-19T03:21:46;30.50;;;10.98;;
62050;SDS011;48008;51.204;6.766;2023-01-19T03:24:16;23.23;;;10.50;;
62050;SDS011;48008;51.204;6.766;2023-01-19T03:26:47;25.55;;;9.98;;
62050;SDS011;48008;51.204;6.766;2023-01-19T03:29:23;32.67;;;11.57;;
62050;SDS011;48008;51.204;6.766;2023-01-19T03:31:55;30.67;;;10.57;;
62050;SDS011;48008;51.204;6.766;2023-01-19T03:34:27;31.65;;;10.48;;
62050;SDS011;48008;51.204;6.766;2023-01-19T03:36:56;28.58;;;10.25;;
62050;SDS011;48008;51.204;6.766;2023-01-19T03:39:25;23.50;;;9.70;;
62050;SDS011;48008;51.204;6.766;2023-01-19T03:41:53;26.55;;;10.52;;
62050;SDS011;48008;51.204;6.766;2023-01-19T03:44:24;22.95;;;7.78;;
62050;SDS011;48008;51.204;6.766;2023-01-19T03:46:54;20.00;;;9.13;;
62050;SDS011;48008;51.204;6.766;2023-01-19T03:49:23;22.95;;;9.18;;
62050;SDS011;48008;51.204;6.766;2023-01-19T03:51:50;23.25;;;9.40;;
62050;SDS011;48008;51.204;6.766;2023-01-19T03:54:21;20.77;;;8.82;;
62050;SDS011;48008;51.204;6.766;2023-01-19T03:56:48;24.17;;;8.90;;
62050;SDS011;48008;51.204;6.766;2023-01-19T03:59:15;26.20;;;9.15;;
62050;SDS011;48008;51.204;6.766;2023-01-19T04:01:42;24.98;;;8.80;;
62050;SDS011;48008;51.204;6.766;2023-01-19T04:04:09;24.70;;;8.80;;
62050;SDS011;48008;51.204;6.766;2023-01-19T04:06:37;21.35;;;9.05;;
62050;SDS011;48008;51.204;6.766;2023-01-19T04:09:03;20.30;;;8.07;;
62050;SDS011;48008;51.204;6.766;2023-01-19T04:11:30;21.75;;;8.93;;
62050;SDS011;48008;51.204;6.766;2023-01-19T04:13:57;25.20;;;9.80;;
62050;SDS011;48008;51.204;6.766;2023-01-19T04:16:24;21.08;;;9.27;;
62050;SDS011;48008;51.204;6.766;2023-01-19T04:18:50;18.83;;;8.10;;
62050;SDS011;48008;51.204;6.766;2023-01-19T04:21:17;20.83;;;10.00;;
62050;SDS011;48008;51.204;6.766;2023-01-19T04:23:47;18.30;;;8.75;;
62050;SDS011;48008;51.204;6.766;2023-01-19T04:26:15;20.40;;;9.07;;
62050;SDS011;48008;51.204;6.766;2023-01-19T04:28:42;17.00;;;7.90;;
62050;SDS011;48008;51.204;6.766;2023-01-19T04:31:09;20.90;;;8.68;;
62050;SDS011;48008;51.204;6.766;2023-01-19T04:33:35;26.13;;;9.50;;
62050;SDS011;48008;51.204;6.766;2023-01-19T04:36:02;22.00;;;9.02;;
62050;SDS011;48008;51.204;6.766;2023-01-19T04:38:29;16.45;;;8.07;;
62050;SDS011;48008;51.204;6.766;2023-01-19T04:40:56;18.45;;;8.30;;
62050;SDS011;48008;51.204;6.766;2023-01-19T04:43:23;21.20;;;8.68;;
62050;SDS011;48008;51.204;6.766;2023-01-19T04:45:50;21.35;;;8.73;;
62050;SDS011;48008;51.204;6.766;2023-01-19T04:48:17;20.10;;;8.70;;
62050;SDS011;48008;51.204;6.766;2023-01-19T04:50:45;25.67;;;9.05;;
62050;SDS011;48008;51.204;6.766;2023-01-19T04:53:13;18.98;;;8.90;;
62050;SDS011;48008;51.204;6.766;2023-01-19T04:55:41;20.55;;;8.85;;
62050;SDS011;48008;51.204;6.766;2023-01-19T04:58:08;26.63;;;9.00;;
62050;SDS011;48008;51.204;6.766;2023-01-19T05:00:35;19.75;;;8.27;;
62050;SDS011;48008;51.204;6.766;2023-01-19T05:03:02;20.10;;;9.20;;
62050;SDS011;48008;51.204;6.766;2023-01-19T05:05:30;20.33;;;8.07;;
62050;SDS011;48008;51.204;6.766;2023-01-19T05:07:59;30.40;;;9.45;;
62050;SDS011;48008;51.204;6.766;2023-01-19T05:10:26;27.50;;;9.95;;
62050;SDS011;48008;51.204;6.766;2023-01-19T05:12:53;19.65;;;8.23;;
62050;SDS011;48008;51.204;6.766;2023-01-19T05:15:20;27.33;;;10.70;;
62050;SDS011;48008;51.204;6.766;2023-01-19T05:17:47;22.75;;;9.60;;
62050;SDS011;48008;51.204;6.766;2023-01-19T05:20:14;24.42;;;10.23;;
62050;SDS011;48008;51.204;6.766;2023-01-19T05:22:42;17.73;;;8.43;;
62050;SDS011;48008;51.204;6.766;2023-01-19T05:25:13;26.45;;;11.45;;
62050;SDS011;48008;51.204;6.766;2023-01-19T05:27:40;27.20;;;11.00;;
62050;SDS011;48008;51.204;6.766;2023-01-19T05:30:07;26.75;;;11.90;;
62050;SDS011;48008;51.204;6.766;2023-01-19T05:32:34;31.77;;;11.90;;
62050;SDS011;48008;51.204;6.766;2023-01-19T05:35:01;33.90;;;12.13;;
62050;SDS011;48008;51.204;6.766;2023-01-19T05:37:28;27.63;;;10.98;;
62050;SDS011;48008;51.204;6.766;2023-01-19T05:39:54;29.48;;;12.07;;
62050;SDS011;48008;51.204;6.766;2023-01-19T05:42:21;29.83;;;13.35;;
62050;SDS011;48008;51.204;6.766;2023-01-19T05:44:48;30.40;;;13.30;;
62050;SDS011;48008;51.204;6.766;2023-01-19T05:47:14;29.75;;;12.90;;
62050;SDS011;48008;51.204;6.766;2023-01-19T05:49:41;27.08;;;13.10;;
62050;SDS011;48008;51.204;6.766;2023-01-19T05:52:08;32.72;;;14.07;;
62050;SDS011;48008;51.204;6.766;2023-01-19T05:54:34;32.67;;;13.50;;
62050;SDS011;48008;51.204;6.766;2023-01-19T05:57:01;29.48;;;13.00;;
62050;SDS011;48008;51.204;6.766;2023-01-19T05:59:29;32.28;;;14.20;;
62050;SDS011;48008;51.204;6.766;2023-01-19T06:01:56;30.17;;;13.95;;
62050;SDS011;48008;51.204;6.766;2023-01-19T06:04:25;22.38;;;9.40;;
62050;SDS011;48008;51.204;6.766;2023-01-19T06:06:53;29.27;;;12.77;;
62050;SDS011;48008;51.204;6.766;2023-01-19T06:09:20;31.85;;;11.98;;
62050;SDS011;48008;51.204;6.766;2023-01-19T06:11:47;27.45;;;12.52;;
62050;SDS011;48008;51.204;6.766;2023-01-19T06:14:14;25.90;;;11.63;;
62050;SDS011;48008;51.204;6.766;2023-01-19T06:16:41;34.92;;;13.43;;
62050;SDS011;48008;51.204;6.766;2023-01-19T06:19:08;26.48;;;11.80;;
62050;SDS011;48008;51.204;6.766;2023-01-19T06:21:35;19.35;;;9.57;;
62050;SDS011;48008;51.204;6.766;2023-01-19T06:24:01;29.55;;;12.65;;
62050;SDS011;48008;51.204;6.766;2023-01-19T06:26:28;29.77;;;11.80;;
62050;SDS011;48008;51.204;6.766;2023-01-19T06:28:55;24.17;;;10.77;;
62050;SDS011;48008;51.204;6.766;2023-01-19T06:31:22;25.67;;;10.77;;
62050;SDS011;48008;51.204;6.766;2023-01-19T06:33:49;28.75;;;11.93;;
62050;SDS011;48008;51.204;6.766;2023-01-19T06:36:15;22.92;;;10.27;;
62050;SDS011;48008;51.204;6.766;2023-01-19T06:38:42;18.30;;;8.65;;
62050;SDS011;48008;51.204;6.766;2023-01-19T06:41:09;24.40;;;11.60;;
62050;SDS011;48008;51.204;6.766;2023-01-19T06:43:36;24.52;;;11.05;;
62050;SDS011;48008;51.204;6.766;2023-01-19T06:46:02;27.25;;;12.40;;
62050;SDS011;48008;51.204;6.766;2023-01-19T06:48:30;29.23;;;12.75;;
62050;SDS011;48008;51.204;6.766;2023-01-19T06:50:56;30.17;;;11.98;;
62050;SDS011;48008;51.204;6.766;2023-01-19T06:53:25;27.75;;;12.48;;
62050;SDS011;48008;51.204;6.766;2023-01-19T06:55:57;26.70;;;12.35;;
62050;SDS011;48008;51.204;6.766;2023-01-19T06:58:25;28.38;;;12.68;;
62050;SDS011;48008;51.204;6.766;2023-01-19T07:00:52;27.30;;;11.88;;
62050;SDS011;48008;51.204;6.766;2023-01-19T07:03:20;31.00;;;12.95;;
62050;SDS011;48008;51.204;6.766;2023-01-19T07:05:51;31.00;;;13.23;;
62050;SDS011;48008;51.204;6.766;2023-01-19T07:08:18;30.52;;;13.57;;
62050;SDS011;48008;51.204;6.766;2023-01-19T07:10:45;29.23;;;12.90;;
62050;SDS011;48008;51.204;6.766;2023-01-19T07:13:12;29.13;;;12.27;;
62050;SDS011;48008;51.204;6.766;2023-01-19T07:15:39;31.42;;;12.32;;
62050;SDS011;48008;51.204;6.766;2023-01-19T07:18:06;35.13;;;13.02;;
62050;SDS011;48008;51.204;6.766;2023-01-19T07:20:33;31.80;;;13.13;;
62050;SDS011;48008;51.204;6.766;2023-01-19T07:23:01;32.75;;;14.40;;
62050;SDS011;48008;51.204;6.766;2023-01-19T07:25:29;34.08;;;13.45;;
62050;SDS011;48008;51.204;6.766;2023-01-19T07:27:57;24.92;;;9.80;;
62050;SDS011;48008;51.204;6.766;2023-01-19T07:30:24;28.90;;;12.15;;
62050;SDS011;48008;51.204;6.766;2023-01-19T07:32:54;36.95;;;15.55;;
62050;SDS011;48008;51.204;6.766;2023-01-19T07:35:23;35.50;;;14.32;;
62050;SDS011;48008;51.204;6.766;2023-01-19T07:37:50;38.05;;;14.55;;
62050;SDS011;48008;51.204;6.766;2023-01-19T07:40:17;30.85;;;12.80;;
62050;SDS011;48008;51.204;6.766;2023-01-19T07:42:44;34.67;;;15.52;;
62050;SDS011;48008;51.204;6.766;2023-01-19T07:45:12;30.00;;;11.68;;
62050;SDS011;48008;51.204;6.766;2023-01-19T07:47:42;36.13;;;14.88;;
62050;SDS011;48008;51.204;6.766;2023-01-19T07:50:11;33.70;;;14.88;;
62050;SDS011;48008;51.204;6.766;2023-01-19T07:52:39;39.50;;;15.57;;
62050;SDS011;48008;51.204;6.766;2023-01-19T07:55:05;37.67;;;16.05;;
62050;SDS011;48008;51.204;6.766;2023-01-19T07:57:33;43.65;;;16.08;;
62050;SDS011;48008;51.204;6.766;2023-01-19T08:00:01;35.47;;;13.23;;
62050;SDS011;48008;51.204;6.766;2023-01-19T08:02:49;27.15;;;11.93;;
62050;SDS011;48008;51.204;6.766;2023-01-19T08:05:17;26.70;;;11.90;;
62050;SDS011;48008;51.204;6.766;2023-01-19T08:07:44;28.45;;;13.18;;
62050;SDS011;48008;51.204;6.766;2023-01-19T08:10:12;35.83;;;15.48;;
62050;SDS011;48008;51.204;6.766;2023-01-19T08:12:40;37.45;;;15.82;;
62050;SDS011;48008;51.204;6.766;2023-01-19T08:15:08;37.13;;;15.85;;
62050;SDS011;48008;51.204;6.766;2023-01-19T08:17:35;37.75;;;16.15;;
62050;SDS011;48008;51.204;6.766;2023-01-19T08:20:02;38.30;;;15.93;;
62050;SDS011;48008;51.204;6.766;2023-01-19T08:22:30;33.85;;;14.02;;
62050;SDS011;48008;51.204;6.766;2023-01-19T08:24:56;29.70;;;13.90;;
62050;SDS011;48008;51.204;6.766;2023-01-19T08:27:23;30.58;;;12.27;;
62050;SDS011;48008;51.204;6.766;2023-01-19T08:29:50;29.15;;;13.13;;
62050;SDS011;48008;51.204;6.766;2023-01-19T08:32:16;38.70;;;15.23;;
62050;SDS011;48008;51.204;6.766;2023-01-19T08:34:44;31.50;;;14.63;;
62050;SDS011;48008;51.204;6.766;2023-01-19T08:37:11;34.95;;;15.23;;
62050;SDS011;48008;51.204;6.766;2023-01-19T08:39:38;34.90;;;15.43;;
62050;SDS011;48008;51.204;6.766;2023-01-19T08:42:04;30.90;;;13.70;;
62050;SDS011;48008;51.204;6.766;2023-01-19T08:44:31;33.20;;;15.50;;
62050;SDS011;48008;51.204;6.766;2023-01-19T08:46:58;40.47;;;15.38;;
62050;SDS011;48008;51.204;6.766;2023-01-19T08:49:25;35.72;;;15.88;;
62050;SDS011;48008;51.204;6.766;2023-01-19T08:51:51;39.72;;;16.33;;
62050;SDS011;48008;51.204;6.766;2023-01-19T08:54:18;34.92;;;14.68;;
62050;SDS011;48008;51.204;6.766;2023-01-19T08:56:46;37.08;;;15.20;;
62050;SDS011;48008;51.204;6.766;2023-01-19T08:59:13;41.67;;;16.85;;
62050;SDS011;48008;51.204;6.766;2023-01-19T09:01:40;31.77;;;13.23;;
62050;SDS011;48008;51.204;6.766;2023-01-19T09:04:07;37.97;;;16.38;;
62050;SDS011;48008;51.204;6.766;2023-01-19T09:06:33;40.50;;;18.17;;
62050;SDS011;48008;51.204;6.766;2023-01-19T09:09:00;42.10;;;18.38;;
62050;SDS011;48008;51.204;6.766;2023-01-19T09:11:27;25.98;;;11.80;;
62050;SDS011;48008;51.204;6.766;2023-01-19T09:13:55;40.33;;;17.80;;
62050;SDS011;48008;51.204;6.766;2023-01-19T09:16:21;39.83;;;17.60;;
62050;SDS011;48008;51.204;6.766;2023-01-19T09:18:49;43.08;;;18.33;;
62050;SDS011;48008;51.204;6.766;2023-01-19T09:21:16;41.42;;;18.15;;
62050;SDS011;48008;51.204;6.766;2023-01-19T09:23:43;45.03;;;18.88;;
62050;SDS011;48008;51.204;6.766;2023-01-19T09:26:10;49.47;;;17.38;;
62050;SDS011;48008;51.204;6.766;2023-01-19T09:28:37;41.88;;;17.50;;
62050;SDS011;48008;51.204;6.766;2023-01-19T09:31:04;45.55;;;19.60;;
62050;SDS011;48008;51.204;6.766;2023-01-19T09:33:33;45.40;;;17.98;;
62050;SDS011;48008;51.204;6.766;2023-01-19T09:36:01;38.38;;;15.30;;
62050;SDS011;48008;51.204;6.766;2023-01-19T09:38:28;46.13;;;18.73;;
62050;SDS011;48008;51.204;6.766;2023-01-19T09:40:58;50.63;;;17.90;;
62050;SDS011;48008;51.204;6.766;2023-01-19T09:43:43;51.85;;;19.58;;
62050;SDS011;48008;51.204;6.766;2023-01-19T09:46:16;46.65;;;19.75;;
62050;SDS011;48008;51.204;6.766;2023-01-19T09:48:51;46.33;;;19.70;;
62050;SDS011;48008;51.204;6.766;2023-01-19T09:51:21;44.20;;;19.30;;
62050;SDS011;48008;51.204;6.766;2023-01-19T09:56:42;46.70;;;18.73;;
62050;SDS011;48008;51.204;6.766;2023-01-19T09:59:42;52.50;;;20.23;;
62050;SDS011;48008;51.204;6.766;2023-01-19T10:05:45;51.20;;;20.00;;
62050;SDS011;48008;51.204;6.766;2023-01-19T10:08:00;51.90;;;19.20;;
62050;SDS011;48008;51.204;6.766;2023-01-19T10:10:53;53.55;;;19.58;;
62050;SDS011;48008;51.204;6.766;2023-01-19T10:13:27;39.88;;;16.35;;
62050;SDS011;48008;51.204;6.766;2023-01-19T10:16:06;43.55;;;17.70;;
62050;SDS011;48008;51.204;6.766;2023-01-19T10:18:58;46.28;;;17.90;;
62050;SDS011;48008;51.204;6.766;2023-01-19T10:21:39;53.63;;;19.60;;
62050;SDS011;48008;51.204;6.766;2023-01-19T10:24:17;53.55;;;20.23;;
62050;SDS011;48008;51.204;6.766;2023-01-19T10:26:50;48.17;;;20.58;;
62050;SDS011;48008;51.204;6.766;2023-01-19T10:29:21;52.67;;;20.67;;
62050;SDS011;48008;51.204;6.766;2023-01-19T10:31:59;56.35;;;21.88;;
62050;SDS011;48008;51.204;6.766;2023-01-19T10:34:32;60.72;;;20.95;;
62050;SDS011;48008;51.204;6.766;2023-01-19T10:37:01;49.28;;;17.42;;
62050;SDS011;48008;51.204;6.766;2023-01-19T10:39:31;55.42;;;20.88;;
62050;SDS011;48008;51.204;6.766;2023-01-19T10:42:01;51.95;;;19.50;;
62050;SDS011;48008;51.204;6.766;2023-01-19T10:44:34;55.70;;;19.73;;
62050;SDS011;48008;51.204;6.766;2023-01-19T10:47:03;55.17;;;18.63;;
62050;SDS011;48008;51.204;6.766;2023-01-19T10:49:37;51.30;;;20.63;;
62050;SDS011;48008;51.204;6.766;2023-01-19T10:52:18;57.88;;;21.63;;
62050;SDS011;48008;51.204;6.766;2023-01-19T10:54:50;56.47;;;19.50;;
62050;SDS011;48008;51.204;6.766;2023-01-19T10:57:25;60.92;;;22.45;;
62050;SDS011;48008;51.204;6.766;2023-01-19T10:59:55;66.47;;;21.52;;
62050;SDS011;48008;51.204;6.766;2023-01-19T11:02:25;52.03;;;20.05;;
62050;SDS011;48008;51.204;6.766;2023-01-19T11:04:54;52.20;;;20.92;;
62050;SDS011;48008;51.204;6.766;2023-01-19T11:10:10;63.45;;;22.25;;
62050;SDS011;48008;51.204;6.766;2023-01-19T11:13:02;49.97;;;20.50;;
62050;SDS011;48008;51.204;6.766;2023-01-19T11:15:40;54.10;;;20.15;;
62050;SDS011;48008;51.204;6.766;2023-01-19T11:20:49;48.15;;;18.20;;
62050;SDS011;48008;51.204;6.766;2023-01-19T11:23:20;52.03;;;18.98;;
62050;SDS011;48008;51.204;6.766;2023-01-19T11:25:58;54.05;;;20.10;;
62050;SDS011;48008;51.204;6.766;2023-01-19T11:28:28;53.42;;;20.20;;
62050;SDS011;48008;51.204;6.766;2023-01-19T11:31:01;48.97;;;19.42;;
62050;SDS011;48008;51.204;6.766;2023-01-19T11:36:22;40.05;;;16.13;;
62050;SDS011;48008;51.204;6.766;2023-01-19T11:38:53;52.33;;;19.75;;
62050;SDS011;48008;51.204;6.766;2023-01-19T11:41:22;57.10;;;20.17;;
62050;SDS011;48008;51.204;6.766;2023-01-19T11:43:59;47.72;;;18.80;;
62050;SDS011;48008;51.204;6.766;2023-01-19T11:46:38;54.95;;;20.48;;
62050;SDS011;48008;51.204;6.766;2023-01-19T11:49:12;51.58;;;19.67;;
62050;SDS011;48008;51.204;6.766;2023-01-19T11:51:49;48.95;;;18.33;;
62050;SDS011;48008;51.204;6.766;2023-01-19T11:54:24;45.35;;;17.17;;
62050;SDS011;48008;51.204;6.766;2023-01-19T11:56:55;48.87;;;15.97;;
62050;SDS011;48008;51.204;6.766;2023-01-19T11:59:25;46.08;;;18.58;;
62050;SDS011;48008;51.204;6.766;2023-01-19T12:01:52;43.97;;;18.20;;
62050;SDS011;48008;51.204;6.766;2023-01-19T12:04:24;42.67;;;18.63;;
62050;SDS011;48008;51.204;6.766;2023-01-19T12:06:58;50.65;;;21.30;;
62050;SDS011;48008;51.204;6.766;2023-01-19T12:09:29;51.08;;;19.25;;
62050;SDS011;48008;51.204;6.766;2023-01-19T12:12:02;55.67;;;20.42;;
62050;SDS011;48008;51.204;6.766;2023-01-19T12:14:35;49.33;;;17.58;;
62050;SDS011;48008;51.204;6.766;2023-01-19T12:17:08;44.75;;;15.63;;
62050;SDS011;48008;51.204;6.766;2023-01-19T12:19:48;45.08;;;19.83;;
62050;SDS011;48008;51.204;6.766;2023-01-19T12:22:20;47.22;;;18.80;;
62050;SDS011;48008;51.204;6.766;2023-01-19T12:24:51;54.03;;;19.58;;
62050;SDS011;48008;51.204;6.766;2023-01-19T12:27:36;45.95;;;17.83;;
62050;SDS011;48008;51.204;6.766;2023-01-19T12:30:14;42.80;;;17.98;;
62050;SDS011;48008;51.204;6.766;2023-01-19T12:32:50;41.30;;;16.85;;
62050;SDS011;48008;51.204;6.766;2023-01-19T12:38:32;46.90;;;17.98;;
62050;SDS011;48008;51.204;6.766;2023-01-19T12:41:41;39.25;;;15.13;;
62050;SDS011;48008;51.204;6.766;2023-01-19T12:44:16;43.55;;;18.08;;
62050;SDS011;48008;51.204;6.766;2023-01-19T12:46:48;35.38;;;16.58;;
62050;SDS011;48008;51.204;6.766;2023-01-19T12:52:40;39.92;;;17.80;;
62050;SDS011;48008;51.204;6.766;2023-01-19T12:58:21;25.73;;;11.85;;
62050;SDS011;48008;51.204;6.766;2023-01-19T13:00:40;45.95;;;18.38;;
62050;SDS011;48008;51.204;6.766;2023-01-19T13:05:57;45.85;;;19.15;;
62050;SDS011;48008;51.204;6.766;2023-01-19T13:08:25;49.58;;;18.80;;
62050;SDS011;48008;51.204;6.766;2023-01-19T13:13:35;47.10;;;18.00;;
62050;SDS011;48008;51.204;6.766;2023-01-19T13:21:47;49.85;;;19.33;;
62050;SDS011;48008;51.204;6.766;2023-01-19T13:24:16;47.47;;;19.38;;
62050;SDS011;48008;51.204;6.766;2023-01-19T13:29:27;46.75;;;18.50;;
62050;SDS011;48008;51.204;6.766;2023-01-19T13:32:00;44.78;;;17.65;;
62050;SDS011;48008;51.204;6.766;2023-01-19T13:34:42;42.20;;;14.73;;
62050;SDS011;48008;51.204;6.766;2023-01-19T13:37:14;41.50;;;17.85;;
62050;SDS011;48008;51.204;6.766;2023-01-19T13:39:43;40.40;;;16.92;;
62050;SDS011;48008;51.204;6.766;2023-01-19T13:42:16;41.55;;;15.90;;
62050;SDS011;48008;51.204;6.766;2023-01-19T13:44:57;44.72;;;17.98;;
62050;SDS011;48008;51.204;6.766;2023-01-19T13:47:29;47.63;;;17.95;;
62050;SDS011;48008;51.204;6.766;2023-01-19T13:50:05;44.28;;;17.77;;
62050;SDS011;48008;51.204;6.766;2023-01-19T13:52:32;45.25;;;17.08;;
62050;SDS011;48008;51.204;6.766;2023-01-19T13:55:00;42.55;;;17.13;;
62050;SDS011;48008;51.204;6.766;2023-01-19T13:57:30;45.85;;;17.50;;
62050;SDS011;48008;51.204;6.766;2023-01-19T14:00:29;36.40;;;16.38;;
62050;SDS011;48008;51.204;6.766;2023-01-19T14:03:20;40.65;;;17.88;;
62050;SDS011;48008;51.204;6.766;2023-01-19T14:05:43;41.53;;;17.75;;
62050;SDS011;48008;51.204;6.766;2023-01-19T14:08:11;44.97;;;17.58;;
62050;SDS011;48008;51.204;6.766;2023-01-19T14:10:44;45.78;;;18.30;;
62050;SDS011;48008;51.204;6.766;2023-01-19T14:13:17;39.75;;;16.92;;
62050;SDS011;48008;51.204;6.766;2023-01-19T14:15:47;42.78;;;17.05;;
62050;SDS011;48008;51.204;6.766;2023-01-19T14:21:04;43.30;;;17.50;;
62050;SDS011;48008;51.204;6.766;2023-01-19T14:23:48;34.08;;;15.50;;
62050;SDS011;48008;51.204;6.766;2023-01-19T14:26:49;44.88;;;16.67;;
62050;SDS011;48008;51.204;6.766;2023-01-19T14:37:45;40.53;;;16.17;;
62050;SDS011;48008;51.204;6.766;2023-01-19T14:40:16;36.17;;;15.95;;
62050;SDS011;48008;51.204;6.766;2023-01-19T14:42:47;38.15;;;16.50;;
62050;SDS011;48008;51.204;6.766;2023-01-19T14:45:22;33.47;;;15.60;;
62050;SDS011;48008;51.204;6.766;2023-01-19T14:47:57;44.88;;;16.55;;
62050;SDS011;48008;51.204;6.766;2023-01-19T14:50:29;30.27;;;13.23;;
62050;SDS011;48008;51.204;6.766;2023-01-19T14:53:02;37.95;;;16.17;;
62050;SDS011;48008;51.204;6.766;2023-01-19T14:55:32;43.33;;;16.98;;
62050;SDS011;48008;51.204;6.766;2023-01-19T14:58:10;37.53;;;16.53;;
62050;SDS011;48008;51.204;6.766;2023-01-19T15:00:39;42.92;;;16.50;;
62050;SDS011;48008;51.204;6.766;2023-01-19T15:03:07;38.38;;;16.65;;
62050;SDS011;48008;51.204;6.766;2023-01-19T15:05:35;36.22;;;15.57;;
62050;SDS011;48008;51.204;6.766;2023-01-19T15:08:03;40.15;;;15.98;;
62050;SDS011;48008;51.204;6.766;2023-01-19T15:10:30;40.85;;;16.33;;
62050;SDS011;48008;51.204;6.766;2023-01-19T15:12:57;40.78;;;16.85;;
62050;SDS011;48008;51.204;6.766;2023-01-19T15:15:27;35.47;;;16.40;;
62050;SDS011;48008;51.204;6.766;2023-01-19T15:17:57;41.65;;;16.38;;
62050;SDS011;48008;51.204;6.766;2023-01-19T15:20:26;39.70;;;16.50;;
62050;SDS011;48008;51.204;6.766;2023-01-19T15:22:53;42.35;;;16.02;;
62050;SDS011;48008;51.204;6.766;2023-01-19T15:25:21;42.22;;;17.70;;
62050;SDS011;48008;51.204;6.766;2023-01-19T15:27:52;41.90;;;18.35;;
62050;SDS011;48008;51.204;6.766;2023-01-19T15:30:24;45.28;;;17.40;;
62050;SDS011;48008;51.204;6.766;2023-01-19T15:32:53;43.60;;;17.73;;
62050;SDS011;48008;51.204;6.766;2023-01-19T15:35:20;43.33;;;17.25;;
62050;SDS011;48008;51.204;6.766;2023-01-19T15:37:49;42.75;;;18.80;;
62050;SDS011;48008;51.204;6.766;2023-01-19T15:40:19;44.72;;;18.30;;
62050;SDS011;48008;51.204;6.766;2023-01-19T15:42:48;41.17;;;17.08;;